This is the latest recevied weather packets stored in our database for station/object CE3RCJ-14. If no packets are shown the sender has not sent any weather packets the latest 10 day(s).
| Time | Temp. | Humidity | Pressure | Rain* | Wind** | Luminosity | Snow |
|---|---|---|---|---|---|---|---|
| 1777619883 | 13.89° C | 61% | 1017.8 hPa | - | - | - | - |
| 1777618081 | 13.89° C | 61% | 1018 hPa | - | - | - | - |
| 1777617781 | 13.89° C | 60% | 1017.7 hPa | - | - | - | - |
| 1777614197 | 13.33° C | 61% | 1017.8 hPa | - | - | - | - |
| 1777613582 | 13.89° C | 60% | 1017.6 hPa | - | - | - | - |
| 1777613282 | 14.44° C | 59% | 1017.5 hPa | - | - | - | - |
| 1777612676 | 14.44° C | 59% | 1017.6 hPa | - | - | - | - |
| 1777611184 | 13.89° C | 60% | 1017.9 hPa | - | - | - | - |
| 1777609683 | 15° C | 58% | 1017.4 hPa | - | - | - | - |
| 1777607899 | 15.56° C | 56% | 1017 hPa | - | - | - | - |
| 1777607582 | 16.11° C | 56% | 1017 hPa | - | - | - | - |
| 1777606985 | 16.11° C | 56% | 1016.7 hPa | - | - | - | - |
| 1777606381 | 16.11° C | 55% | 1016.6 hPa | - | - | - | - |
| 1777604885 | 16.11° C | 55% | 1016.7 hPa | - | - | - | - |
| 1777604598 | 16.11° C | 55% | 1016.8 hPa | - | - | - | - |
| 1777603382 | 16.11° C | 55% | 1017 hPa | - | - | - | - |
| 1777600981 | 16.11° C | 55% | 1016.6 hPa | - | - | - | - |
| 1777599787 | 15.56° C | 56% | 1016.5 hPa | - | - | - | - |
| 1777596181 | 16.67° C | 54% | 1015.2 hPa | - | - | - | - |
| 1777595281 | 17.22° C | 53% | 1014.8 hPa | - | - | - | - |
| 1777594081 | 17.78° C | 51% | 1014.4 hPa | - | - | - | - |
| 1777593481 | 17.78° C | 51% | 1014.3 hPa | - | - | - | - |
| 1777592582 | 17.78° C | 51% | 1014 hPa | - | - | - | - |
| 1777591987 | 17.78° C | 50% | 1013.9 hPa | - | - | - | - |
| 1777591700 | 18.33° C | 50% | 1013.9 hPa | - | - | - | - |
* Rain since midnight (hover to see other rain measurements)
** Current wind speed in m/s (hover to see current wind gust speed)